Time;durP1;ratioP1;P1;durP2;ratioP2;P2;SDS_P1;SDS_P2;PMS_P1;PMS_P2;Temp;Humidity;BMP_temperature;BMP_pressure;BME280_temperature;BME280_humidity;BME280_pressure;Samples;Min_cycle;Max_cycle;Signal;HPM_P1;HPM_P2
2023/02/07 00:01:15;;;;;;;2.60;1.23;;;1.60;99.90;;;;;;4968034;28;20052;-73
2023/02/07 00:03:41;;;;;;;2.00;0.75;;;1.60;99.90;;;;;;4971342;28;20035;-73
2023/02/07 00:06:19;;;;;;;1.35;0.98;;;1.60;99.90;;;;;;4963969;28;20035;-73
2023/02/07 00:08:45;;;;;;;4.03;1.02;;;1.50;99.90;;;;;;4989260;28;20038;-73
2023/02/07 00:11:18;;;;;;;2.42;1.42;;;1.40;99.90;;;;;;4980466;28;20402;-73
2023/02/07 00:13:45;;;;;;;2.28;0.90;;;1.40;99.90;;;;;;4971523;28;20117;-73
2023/02/07 00:16:11;;;;;;;1.67;0.80;;;1.50;99.90;;;;;;4967796;28;20038;-73
2023/02/07 00:18:38;;;;;;;3.97;0.80;;;1.50;99.90;;;;;;4988166;28;20037;-73
2023/02/07 00:21:08;;;;;;;2.28;1.48;;;1.50;99.90;;;;;;4968938;28;20034;-73
2023/02/07 00:23:35;;;;;;;1.80;0.90;;;1.50;99.90;;;;;;4987014;28;20034;-73
2023/02/07 00:26:02;;;;;;;1.30;1.08;;;1.60;99.90;;;;;;4981577;28;20041;-73
2023/02/07 00:28:28;;;;;;;2.50;1.45;;;1.70;99.90;;;;;;4986787;28;20057;-73
2023/02/07 00:31:22;;;;;;;1.27;0.90;;;1.70;99.90;;;;;;4982660;28;20449;-73
2023/02/07 00:33:50;;;;;;;1.73;1.02;;;1.70;99.90;;;;;;4984410;28;20038;-73
2023/02/07 00:36:20;;;;;;;1.52;0.85;;;1.80;99.90;;;;;;4984525;28;20029;-73
2023/02/07 00:38:47;;;;;;;2.27;1.20;;;1.80;99.90;;;;;;4993769;28;20030;-73
2023/02/07 00:41:16;;;;;;;1.23;1.13;;;1.80;99.90;;;;;;4964574;28;20077;-73
2023/02/07 00:43:43;;;;;;;1.88;1.02;;;1.80;99.90;;;;;;4971167;28;20133;-73
2023/02/07 00:46:09;;;;;;;7.53;1.55;;;1.80;99.90;;;;;;4964549;28;20026;-73
2023/02/07 00:48:38;;;;;;;1.45;0.77;;;1.90;99.90;;;;;;4987447;28;20034;-73
2023/02/07 00:51:04;;;;;;;1.88;1.38;;;1.80;99.90;;;;;;4965722;28;20026;-73
2023/02/07 00:53:30;;;;;;;1.73;1.50;;;1.80;99.90;;;;;;4968928;28;20495;-73
2023/02/07 00:55:56;;;;;;;2.33;1.00;;;1.80;99.90;;;;;;4966441;28;20030;-73
2023/02/07 00:58:22;;;;;;;2.13;1.42;;;1.70;99.90;;;;;;4985331;28;20446;-73
2023/02/07 01:00:49;;;;;;;1.67;1.30;;;1.70;99.90;;;;;;4966916;28;20066;-73
2023/02/07 01:03:15;;;;;;;2.35;1.13;;;1.80;99.90;;;;;;4967492;28;20023;-73
2023/02/07 01:05:41;;;;;;;3.03;1.42;;;1.70;99.90;;;;;;4975985;28;20049;-73
2023/02/07 01:08:07;;;;;;;1.83;1.13;;;1.80;99.90;;;;;;4967408;28;20033;-73
2023/02/07 01:10:34;;;;;;;1.73;1.02;;;1.90;99.90;;;;;;4966202;28;20068;-73
2023/02/07 01:13:00;;;;;;;2.17;1.15;;;1.90;99.90;;;;;;4967207;28;20023;-73
2023/02/07 01:15:26;;;;;;;2.10;1.30;;;1.90;99.90;;;;;;4966176;28;20117;-73
2023/02/07 01:17:52;;;;;;;2.20;1.17;;;1.90;99.90;;;;;;4984489;28;20058;-73
2023/02/07 01:20:18;;;;;;;3.38;1.73;;;1.80;99.90;;;;;;4966114;28;20030;-73
2023/02/07 01:22:43;;;;;;;1.90;0.80;;;1.80;99.90;;;;;;4984367;28;20034;-73
2023/02/07 01:25:10;;;;;;;13.20;1.73;;;1.90;99.90;;;;;;4983517;28;20035;-73
2023/02/07 01:27:36;;;;;;;2.42;1.48;;;1.90;99.90;;;;;;4984103;28;20450;-73
2023/02/07 01:30:04;;;;;;;2.58;1.10;;;2.00;99.90;;;;;;4966224;28;20031;-73
2023/02/07 01:32:32;;;;;;;10.52;2.22;;;2.00;99.90;;;;;;4966983;28;20034;-73
2023/02/07 01:34:58;;;;;;;1.73;0.98;;;2.00;99.90;;;;;;4965731;28;20042;-73
2023/02/07 01:37:23;;;;;;;2.10;1.25;;;1.90;99.90;;;;;;4983920;28;20117;-73
2023/02/07 01:39:49;;;;;;;2.97;1.75;;;1.80;99.90;;;;;;4984386;28;20041;-73
2023/02/07 01:42:16;;;;;;;4.22;1.92;;;1.80;99.90;;;;;;4983469;28;20034;-73
2023/02/07 01:44:42;;;;;;;2.80;1.30;;;1.70;99.90;;;;;;4967197;28;20030;-73
2023/02/07 01:47:16;;;;;;;5.03;1.40;;;1.60;99.90;;;;;;4982605;28;20149;-73
2023/02/07 01:49:45;;;;;;;3.72;2.35;;;1.40;99.90;;;;;;4967561;28;20035;-73
2023/02/07 01:52:18;;;;;;;5.50;1.52;;;1.30;99.90;;;;;;4965425;28;20027;-73
2023/02/07 01:54:48;;;;;;;1.77;0.90;;;1.20;99.90;;;;;;4977798;28;20447;-73
2023/02/07 01:57:19;;;;;;;2.10;1.45;;;1.20;99.90;;;;;;4978841;28;20129;-73
2023/02/07 01:59:45;;;;;;;2.20;1.65;;;1.10;99.90;;;;;;4954706;28;20042;-73
2023/02/07 02:02:14;;;;;;;2.17;1.13;;;1.10;99.90;;;;;;4981059;28;20034;-73
2023/02/07 02:04:41;;;;;;;2.78;1.52;;;1.10;99.90;;;;;;4962134;28;20133;-73
2023/02/07 02:07:10;;;;;;;3.33;1.80;;;1.10;99.90;;;;;;4948547;28;20031;-73
2023/02/07 02:09:36;;;;;;;2.65;1.40;;;1.20;99.90;;;;;;4942767;28;20043;-73
2023/02/07 02:13:12;;;;;;;2.13;1.55;;;1.20;99.90;;;;;;4982311;28;20022;-73
2023/02/07 02:16:04;;;;;;;3.83;2.05;;;1.20;99.90;;;;;;4955385;28;20038;-73
2023/02/07 02:18:37;;;;;;;4.35;2.90;;;1.10;99.90;;;;;;4978309;28;20084;-73
2023/02/07 02:21:27;;;;;;;4.10;2.17;;;1.20;99.90;;;;;;4964537;28;20030;-73
2023/02/07 02:23:58;;;;;;;3.65;1.83;;;1.20;99.90;;;;;;4980149;28;20046;-73
2023/02/07 02:27:07;;;;;;;1.70;1.58;;;1.10;99.90;;;;;;4972462;28;20031;-73
2023/02/07 02:29:44;;;;;;;2.75;1.95;;;1.10;99.90;;;;;;4953089;28;20047;-73
2023/02/07 02:32:40;;;;;;;3.95;2.55;;;1.20;99.90;;;;;;4979457;28;20034;-73
2023/02/07 02:35:27;;;;;;;5.75;2.13;;;1.10;99.90;;;;;;4965629;28;20041;-73
2023/02/07 02:38:29;;;;;;;3.17;1.90;;;1.10;99.90;;;;;;4983205;28;20041;-73
2023/02/07 02:41:16;;;;;;;7.05;2.00;;;1.00;99.90;;;;;;4958015;28;20070;-73
2023/02/07 02:44:08;;;;;;;3.10;1.88;;;1.00;99.90;;;;;;4961501;28;20163;-73
2023/02/07 02:46:37;;;;;;;2.15;1.73;;;0.90;99.90;;;;;;4973716;28;20372;-73
2023/02/07 02:49:06;;;;;;;5.70;2.30;;;0.80;99.90;;;;;;4986017;28;20375;-73
2023/02/07 02:51:32;;;;;;;8.23;2.63;;;0.80;99.90;;;;;;4972573;28;20027;-73
2023/02/07 02:53:59;;;;;;;4.32;2.15;;;0.70;99.90;;;;;;4986864;28;20335;-73
2023/02/07 02:56:57;;;;;;;5.30;3.03;;;0.60;99.90;;;;;;4961443;28;20581;-73
2023/02/07 02:59:45;;;;;;;2.42;1.83;;;0.60;99.90;;;;;;4958756;28;20042;-73
2023/02/07 03:02:55;;;;;;;2.33;1.85;;;0.50;99.90;;;;;;4964895;28;20031;-73
2023/02/07 03:05:27;;;;;;;5.80;2.03;;;0.50;99.90;;;;;;4952070;29;20081;-73
2023/02/07 03:08:09;;;;;;;;;;;0.40;99.90;;;;;;4980013;28;20113;-73
2023/02/07 03:10:45;;;;;;;4.72;2.50;;;0.40;99.90;;;;;;4952282;28;19918;-73
2023/02/07 03:13:25;;;;;;;5.13;2.22;;;0.40;99.90;;;;;;4983552;28;20510;-73
2023/02/07 03:16:15;;;;;;;3.38;1.83;;;0.40;99.90;;;;;;4978370;28;20034;-73
2023/02/07 03:19:06;;;;;;;2.22;1.40;;;0.30;99.90;;;;;;4978272;28;20027;-73
2023/02/07 03:22:04;;;;;;;5.53;2.22;;;0.30;99.90;;;;;;4976589;28;20042;-73
2023/02/07 03:24:33;;;;;;;12.40;3.38;;;0.20;99.90;;;;;;4970929;28;20491;-73
2023/02/07 03:27:05;;;;;;;3.35;1.98;;;0.20;99.90;;;;;;4972288;28;20037;-73
2023/02/07 03:29:31;;;;;;;;;;;0.20;99.90;;;;;;4971587;28;20430;-73
2023/02/07 03:32:01;;;;;;;7.88;2.13;;;0.30;99.90;;;;;;4969408;28;19925;-73
2023/02/07 03:34:37;;;;;;;9.57;2.88;;;0.20;99.90;;;;;;4964164;28;20043;-73
2023/02/07 03:37:32;;;;;;;5.38;2.05;;;0.30;99.90;;;;;;4956696;28;20088;-73
2023/02/07 03:39:58;;;;;;;4.25;2.38;;;0.30;99.90;;;;;;4976882;28;20030;-73
2023/02/07 03:43:17;;;;;;;5.10;2.67;;;0.20;99.90;;;;;;4968290;28;20026;-73
2023/02/07 03:45:43;;;;;;;7.30;2.05;;;0.20;99.90;;;;;;4954888;28;20043;-73
2023/02/07 03:48:09;;;;;;;4.25;2.17;;;0.10;99.90;;;;;;4983364;28;20038;-73
2023/02/07 03:50:35;;;;;;;4.25;2.45;;;0.10;99.90;;;;;;4974698;28;20133;-73
2023/02/07 03:53:01;;;;;;;5.50;2.63;;;0.10;99.90;;;;;;4979811;28;20394;-73
2023/02/07 03:55:27;;;;;;;5.45;2.08;;;0.20;99.90;;;;;;4975757;28;20597;-73
2023/02/07 03:57:53;;;;;;;3.75;1.40;;;0.20;99.90;;;;;;4982380;28;20506;-73
2023/02/07 04:00:19;;;;;;;5.32;3.30;;;0.10;99.90;;;;;;4976625;28;20084;-73
2023/02/07 04:02:45;;;;;;;3.55;1.67;;;0.10;99.90;;;;;;4973784;28;20570;-74
2023/02/07 04:05:11;;;;;;;5.18;2.83;;;0.10;99.90;;;;;;4965670;28;20031;-73
2023/02/07 04:07:37;;;;;;;5.13;2.80;;;0.10;99.90;;;;;;4961772;28;20042;-73
2023/02/07 04:10:04;;;;;;;3.60;2.10;;;0.10;99.90;;;;;;4937875;29;20391;-73
2023/02/07 04:12:31;;;;;;;5.47;2.42;;;0.10;99.90;;;;;;4971815;28;20034;-73
2023/02/07 04:15:06;;;;;;;5.85;3.13;;;0.10;99.90;;;;;;4939748;29;20447;-73
2023/02/07 04:17:32;;;;;;;3.60;1.77;;;0.10;99.90;;;;;;4953292;29;20063;-74
2023/02/07 04:19:57;;;;;;;4.82;3.85;;;0.10;99.90;;;;;;4962960;28;20038;-73
2023/02/07 04:22:23;;;;;;;3.85;2.28;;;0.00;99.90;;;;;;4973743;28;20126;-73
2023/02/07 04:24:49;;;;;;;6.40;2.83;;;0.00;99.90;;;;;;4973552;28;20126;-73
2023/02/07 04:27:15;;;;;;;4.43;2.38;;;0.00;99.90;;;;;;4973733;28;20030;-73
2023/02/07 04:29:40;;;;;;;4.78;2.75;;;-0.10;99.90;;;;;;4973790;28;20089;-74
2023/02/07 04:32:06;;;;;;;6.65;2.47;;;-0.10;99.90;;;;;;4973848;28;20026;-74
2023/02/07 04:34:32;;;;;;;13.63;3.92;;;-0.20;99.90;;;;;;4973197;28;20034;-73
2023/02/07 04:36:58;;;;;;;3.75;2.78;;;-0.20;99.90;;;;;;4967858;28;20505;-73
2023/02/07 04:39:23;;;;;;;19.15;7.22;;;-0.20;99.90;;;;;;4973380;28;20042;-73
2023/02/07 04:41:49;;;;;;;14.13;4.88;;;-0.30;99.90;;;;;;4956289;28;20122;-73
2023/02/07 04:44:15;;;;;;;5.20;2.42;;;-0.30;99.90;;;;;;4971635;28;20049;-72
2023/02/07 04:46:40;;;;;;;5.10;2.20;;;-0.40;99.90;;;;;;5015669;22;20057;-78
2023/02/07 04:49:06;;;;;;;3.58;1.70;;;-0.40;99.90;;;;;;5012826;28;20030;-78
2023/02/07 04:51:32;;;;;;;8.32;2.42;;;-0.50;99.90;;;;;;5006156;28;20446;-78
2023/02/07 04:53:58;;;;;;;3.70;2.60;;;-0.50;99.90;;;;;;4991645;28;20026;-78
2023/02/07 04:56:24;;;;;;;7.65;2.92;;;-0.50;99.90;;;;;;4987909;28;20030;-77
2023/02/07 04:58:50;;;;;;;5.97;3.78;;;-0.50;99.90;;;;;;4991832;28;20026;-77
2023/02/07 05:01:16;;;;;;;5.70;2.70;;;-0.60;99.90;;;;;;4992814;28;20045;-77
2023/02/07 05:03:41;;;;;;;6.53;3.13;;;-0.60;99.90;;;;;;5006207;28;20217;-78
2023/02/07 05:06:07;;;;;;;4.00;2.47;;;-0.70;99.90;;;;;;4991476;28;20109;-78
2023/02/07 05:08:35;;;;;;;7.90;3.15;;;-0.60;99.90;;;;;;5004738;28;20036;-78
2023/02/07 05:11:03;;;;;;;5.32;2.70;;;-0.60;99.90;;;;;;4989603;28;20030;-75
2023/02/07 05:13:29;;;;;;;11.75;4.25;;;-0.70;99.90;;;;;;4962045;28;20466;-78
2023/02/07 05:15:54;;;;;;;4.25;1.67;;;-0.70;99.90;;;;;;4992745;28;20164;-78
2023/02/07 05:18:20;;;;;;;13.40;2.72;;;-0.70;99.90;;;;;;4998648;28;20033;-78
2023/02/07 05:20:47;;;;;;;5.95;3.00;;;-0.60;99.90;;;;;;4979277;28;20046;-78
2023/02/07 05:23:13;;;;;;;6.18;3.38;;;-0.60;99.90;;;;;;5003446;28;20038;-77
2023/02/07 05:25:42;;;;;;;5.55;2.92;;;-0.40;99.90;;;;;;5007425;28;20053;-78
2023/02/07 05:28:09;;;;;;;5.10;3.13;;;-0.40;99.90;;;;;;4986388;28;20038;-79
2023/02/07 05:30:35;;;;;;;5.75;3.13;;;-0.50;99.90;;;;;;5002827;28;20062;-77
2023/02/07 05:33:06;;;;;;;8.00;2.50;;;-0.50;99.90;;;;;;4981870;28;20057;-77
2023/02/07 05:35:50;;;;;;;5.03;2.80;;;-0.50;99.90;;;;;;4979819;28;20425;-80
2023/02/07 05:38:18;;;;;;;5.78;3.13;;;-0.50;99.90;;;;;;5004166;28;20026;-79
2023/02/07 05:40:45;;;;;;;7.03;3.15;;;-0.50;99.90;;;;;;4991707;28;20160;-81
2023/02/07 05:43:12;;;;;;;9.05;3.28;;;-0.60;99.90;;;;;;5004142;28;20038;-80
2023/02/07 05:45:38;;;;;;;5.85;3.53;;;-0.60;99.90;;;;;;5007594;28;20572;-79
2023/02/07 05:48:04;;;;;;;10.93;3.97;;;-0.60;99.90;;;;;;5007654;28;20142;-81
2023/02/07 05:50:30;;;;;;;5.72;3.20;;;-0.60;99.90;;;;;;4992543;28;20025;-82
2023/02/07 05:52:56;;;;;;;5.63;3.28;;;-0.60;99.90;;;;;;4986113;28;20033;-80
2023/02/07 05:55:22;;;;;;;10.57;3.25;;;-0.70;99.90;;;;;;4990795;28;20049;-77
2023/02/07 05:57:47;;;;;;;18.55;6.72;;;-0.70;99.90;;;;;;5004357;28;20497;-78
2023/02/07 06:00:17;;;;;;;6.68;2.85;;;-0.80;99.90;;;;;;4989690;28;20034;-78
2023/02/07 06:02:43;;;;;;;12.18;2.95;;;-0.80;99.90;;;;;;4982389;28;20045;-79
2023/02/07 06:05:13;;;;;;;18.60;5.03;;;-0.80;99.90;;;;;;4992148;28;20033;-78
2023/02/07 06:07:39;;;;;;;5.97;2.60;;;-0.90;99.90;;;;;;5003295;28;20029;-79
2023/02/07 06:10:06;;;;;;;7.65;3.90;;;-0.90;99.90;;;;;;5009900;28;20142;-80
2023/02/07 06:12:33;;;;;;;5.18;2.53;;;-0.90;99.90;;;;;;4995007;28;20038;-80
2023/02/07 06:14:59;;;;;;;5.65;3.63;;;-1.00;99.90;;;;;;4985633;28;20114;-83
2023/02/07 06:17:25;;;;;;;14.13;4.47;;;-1.10;99.90;;;;;;5001887;28;20457;-77
2023/02/07 06:19:52;;;;;;;13.02;3.78;;;-1.10;99.90;;;;;;4990984;28;20036;-80
2023/02/07 06:22:18;;;;;;;6.10;3.90;;;-1.10;99.90;;;;;;5002447;28;20112;-79
2023/02/07 06:24:43;;;;;;;3.95;2.40;;;-1.10;99.90;;;;;;4992927;28;20084;-78
2023/02/07 06:27:09;;;;;;;4.13;2.10;;;-1.10;99.90;;;;;;5000409;28;20038;-78
2023/02/07 06:29:35;;;;;;;5.70;2.97;;;-1.10;99.90;;;;;;4978619;28;20037;-80
2023/02/07 06:32:01;;;;;;;5.70;2.90;;;-1.10;99.90;;;;;;4991540;28;20410;-79
2023/02/07 06:34:27;;;;;;;2.95;2.03;;;-1.20;99.90;;;;;;4982672;28;20441;-80
2023/02/07 06:36:52;;;;;;;8.68;3.90;;;-1.20;99.90;;;;;;4986838;28;20448;-80
2023/02/07 06:39:18;;;;;;;9.15;2.90;;;-1.20;99.90;;;;;;4974671;28;20033;-80
2023/02/07 06:41:44;;;;;;;4.95;2.33;;;-1.30;99.90;;;;;;4997285;28;20038;-79
2023/02/07 06:44:10;;;;;;;9.70;4.68;;;-1.30;99.90;;;;;;4997291;28;20411;-79
2023/02/07 06:46:36;;;;;;;6.03;2.80;;;-1.30;99.90;;;;;;4987438;28;20083;-80
2023/02/07 06:49:02;;;;;;;9.07;4.18;;;-1.40;99.90;;;;;;5006538;28;20030;-79
2023/02/07 06:51:27;;;;;;;6.25;2.22;;;-1.40;99.90;;;;;;4975404;28;20030;-80
2023/02/07 06:53:53;;;;;;;7.88;3.88;;;-1.30;99.90;;;;;;5000203;28;20041;-80
2023/02/07 06:56:19;;;;;;;10.82;4.88;;;-1.30;99.90;;;;;;5008812;28;20100;-72
2023/02/07 06:58:44;;;;;;;8.13;3.80;;;-1.20;99.90;;;;;;5006784;28;20034;-71
2023/02/07 07:01:10;;;;;;;6.57;3.53;;;-1.30;99.90;;;;;;5001811;28;20065;-73
2023/02/07 07:03:36;;;;;;;6.13;2.83;;;-1.30;99.90;;;;;;4973617;28;20030;-74
2023/02/07 07:06:02;;;;;;;6.30;4.18;;;-1.20;99.90;;;;;;5008590;28;20034;-73
2023/02/07 07:08:27;;;;;;;4.25;2.33;;;-1.20;99.90;;;;;;4993260;28;20437;-73
2023/02/07 07:10:55;;;;;;;4.45;2.28;;;-1.30;99.90;;;;;;4998770;28;20030;-73
2023/02/07 07:13:21;;;;;;;5.55;3.60;;;-1.30;99.90;;;;;;4953730;28;20433;-72
2023/02/07 07:15:47;;;;;;;15.82;2.95;;;-1.20;99.90;;;;;;5008614;28;20084;-79
2023/02/07 07:18:13;;;;;;;7.28;3.58;;;-1.20;99.90;;;;;;5011427;28;20498;-78
2023/02/07 07:20:38;;;;;;;6.07;2.85;;;-1.20;99.90;;;;;;5008752;28;20109;-78
2023/02/07 07:23:04;;;;;;;5.50;3.17;;;-1.10;99.90;;;;;;5011452;28;20149;-76
2023/02/07 07:25:30;;;;;;;6.78;3.45;;;-1.00;99.90;;;;;;5008276;28;20072;-77
2023/02/07 07:27:56;;;;;;;4.38;3.05;;;-1.00;99.90;;;;;;5011486;28;20114;-76
2023/02/07 07:30:22;;;;;;;5.80;2.95;;;-0.90;99.90;;;;;;4987825;28;20032;-76
2023/02/07 07:32:48;;;;;;;6.30;3.30;;;-0.90;99.90;;;;;;4977723;28;20034;-77
2023/02/07 07:35:13;;;;;;;3.72;3.03;;;-0.90;99.90;;;;;;5006393;28;20042;-77
2023/02/07 07:37:40;;;;;;;5.25;2.60;;;-0.80;99.90;;;;;;4997688;28;20553;-77
2023/02/07 07:40:07;;;;;;;4.30;2.40;;;-0.90;99.90;;;;;;4988818;28;20527;-77
2023/02/07 07:42:34;;;;;;;8.68;3.75;;;-0.80;99.90;;;;;;5016596;28;20132;-76
2023/02/07 07:45:00;;;;;;;12.48;3.17;;;-0.90;99.90;;;;;;4987275;28;20116;-76
2023/02/07 07:47:26;;;;;;;6.38;3.42;;;-0.90;99.90;;;;;;4999185;28;20113;-77
2023/02/07 07:49:52;;;;;;;5.03;2.83;;;-0.80;99.90;;;;;;4988456;28;20700;-76
2023/02/07 07:52:18;;;;;;;4.70;2.85;;;-0.80;99.90;;;;;;4998896;28;20029;-77
2023/02/07 07:54:43;;;;;;;10.45;3.60;;;-0.80;99.90;;;;;;5004208;28;20034;-76
2023/02/07 07:57:09;;;;;;;6.53;3.72;;;-0.80;99.90;;;;;;4994516;28;20022;-77
2023/02/07 07:59:35;;;;;;;4.93;2.95;;;-0.80;99.90;;;;;;4987296;28;20034;-78
2023/02/07 08:02:01;;;;;;;5.95;3.88;;;-0.80;99.90;;;;;;4993925;28;20026;-78
2023/02/07 08:04:26;;;;;;;4.30;2.95;;;-0.70;99.90;;;;;;4998765;28;20443;-78
2023/02/07 08:06:52;;;;;;;6.13;2.78;;;-0.70;99.90;;;;;;5009505;28;20212;-76
2023/02/07 08:09:18;;;;;;;6.32;3.03;;;-0.60;99.90;;;;;;4989138;28;20038;-76
2023/02/07 08:11:44;;;;;;;6.53;3.10;;;-0.60;99.90;;;;;;4995369;28;20034;-77
2023/02/07 08:14:10;;;;;;;14.68;4.95;;;-0.60;99.90;;;;;;5000424;28;20034;-78
2023/02/07 08:16:36;;;;;;;6.53;2.53;;;-0.60;99.90;;;;;;4995511;28;20037;-78
2023/02/07 08:19:01;;;;;;;6.32;3.15;;;-0.50;99.90;;;;;;4990733;28;20034;-77
2023/02/07 08:21:27;;;;;;;4.80;2.65;;;-0.30;99.90;;;;;;4988652;28;20040;-77
2023/02/07 08:23:53;;;;;;;4.70;2.88;;;-0.30;99.90;;;;;;4984070;28;20038;-77
2023/02/07 08:26:19;;;;;;;6.68;3.75;;;-0.10;99.90;;;;;;5001879;28;20037;-78
2023/02/07 08:28:46;;;;;;;5.40;3.00;;;0.00;99.90;;;;;;4982026;28;20032;-77
2023/02/07 08:31:12;;;;;;;4.22;3.53;;;0.00;99.90;;;;;;4958172;28;20108;-77
2023/02/07 08:33:38;;;;;;;5.32;3.35;;;0.10;99.90;;;;;;4970423;28;20411;-77
2023/02/07 08:36:08;;;;;;;7.38;3.67;;;0.20;99.90;;;;;;4970753;28;20509;-76
2023/02/07 08:38:33;;;;;;;5.22;2.40;;;0.20;99.90;;;;;;4977264;28;20038;-76
2023/02/07 08:40:59;;;;;;;5.03;1.95;;;0.40;99.90;;;;;;4991059;28;20041;-77
2023/02/07 08:43:25;;;;;;;5.88;2.83;;;0.40;99.90;;;;;;4981796;28;20038;-77
2023/02/07 08:45:51;;;;;;;5.18;3.33;;;0.70;99.90;;;;;;5004301;28;20037;-77
2023/02/07 08:48:17;;;;;;;5.32;3.72;;;0.60;99.90;;;;;;5003548;28;20037;-77
2023/02/07 08:50:43;;;;;;;3.95;2.78;;;0.80;99.90;;;;;;4986844;28;20145;-78
2023/02/07 08:53:08;;;;;;;7.63;2.78;;;0.70;99.90;;;;;;4989825;28;20030;-78
2023/02/07 08:55:35;;;;;;;7.15;3.15;;;0.80;99.90;;;;;;4986505;28;20030;-77
2023/02/07 08:58:00;;;;;;;6.95;3.60;;;0.80;99.90;;;;;;4989682;28;20113;-77
2023/02/07 09:00:26;;;;;;;23.35;4.80;;;0.80;99.90;;;;;;4999864;28;20589;-77
2023/02/07 09:02:52;;;;;;;13.05;3.85;;;1.00;99.90;;;;;;4988290;28;20039;-76
2023/02/07 09:05:18;;;;;;;7.10;3.33;;;1.10;99.90;;;;;;5003235;28;20401;-76
2023/02/07 09:07:43;;;;;;;7.13;3.72;;;1.30;99.90;;;;;;4989714;28;20088;-76
2023/02/07 09:10:09;;;;;;;11.70;5.03;;;1.20;99.90;;;;;;5001834;28;20101;-77
2023/02/07 09:12:36;;;;;;;5.53;3.40;;;1.30;99.90;;;;;;4990703;28;20030;-76
2023/02/07 09:15:04;;;;;;;4.97;3.17;;;1.30;99.90;;;;;;4997466;28;20026;-76
2023/02/07 09:17:30;;;;;;;5.60;3.50;;;1.30;99.90;;;;;;4987840;28;20019;-76
2023/02/07 09:19:56;;;;;;;7.75;4.22;;;1.30;99.90;;;;;;5000592;28;20068;-79
2023/02/07 09:22:21;;;;;;;7.10;3.22;;;1.60;99.90;;;;;;5011013;28;20026;-76
2023/02/07 09:24:48;;;;;;;5.28;2.55;;;1.50;99.90;;;;;;4995670;28;20038;-77
2023/02/07 09:27:13;;;;;;;4.13;2.45;;;1.60;99.90;;;;;;5011034;28;20041;-77
2023/02/07 09:29:39;;;;;;;5.60;2.25;;;1.50;99.90;;;;;;5001773;28;20034;-73
2023/02/07 09:32:05;;;;;;;10.52;4.25;;;1.50;99.90;;;;;;4993043;28;20034;-74
2023/02/07 09:34:33;;;;;;;6.30;2.92;;;1.60;99.90;;;;;;4996096;28;20141;-77
2023/02/07 09:36:59;;;;;;;4.97;2.85;;;1.70;99.90;;;;;;4989398;28;20042;-76
2023/02/07 09:39:25;;;;;;;4.40;2.58;;;1.80;99.90;;;;;;4993390;28;20784;-75
2023/02/07 09:42:38;;;;;;;7.22;2.95;;;2.10;99.90;;;;;;4980613;28;20081;-76
2023/02/07 09:45:21;;;;;;;5.53;3.47;;;2.30;99.90;;;;;;4959272;28;20053;-77
2023/02/07 09:47:51;;;;;;;17.25;3.17;;;2.50;99.90;;;;;;4985844;28;20105;-77
2023/02/07 09:50:33;;;;;;;11.80;4.25;;;2.50;99.90;;;;;;4990579;28;20041;-77
2023/02/07 09:53:15;;;;;;;5.68;3.17;;;2.60;99.90;;;;;;4986556;28;20113;-77
2023/02/07 09:55:53;;;;;;;10.80;3.35;;;2.70;99.90;;;;;;4991466;28;20064;-79
2023/02/07 09:58:46;;;;;;;6.30;3.55;;;2.70;99.90;;;;;;4967172;28;20034;-79
2023/02/07 10:01:21;;;;;;;14.45;3.95;;;2.80;99.90;;;;;;4961154;28;20030;-79
2023/02/07 10:04:22;;;;;;;9.27;2.55;;;2.90;99.90;;;;;;4978600;28;20036;-78
2023/02/07 10:06:52;;;;;;;4.90;3.33;;;2.70;99.90;;;;;;4973493;28;20057;-77
2023/02/07 10:09:32;;;;;;;9.35;3.67;;;3.00;99.90;;;;;;4993666;28;20482;-79
2023/02/07 10:12:18;;;;;;;7.38;3.08;;;3.10;99.90;;;;;;4984743;28;20088;-79
2023/02/07 10:15:18;;;;;;;17.10;3.28;;;3.30;99.90;;;;;;4991574;28;20034;-79
2023/02/07 10:18:39;;;;;;;5.47;3.42;;;3.60;99.30;;;;;;4993647;28;20045;-79
2023/02/07 10:21:19;;;;;;;10.80;3.17;;;5.80;97.20;;;;;;4949907;28;20572;-80
2023/02/07 10:24:04;;;;;;;11.05;3.60;;;7.60;92.90;;;;;;4988790;28;20306;-80
2023/02/07 10:26:40;;;;;;;6.30;3.30;;;7.30;92.70;;;;;;5000418;28;20042;-81
2023/02/07 10:29:24;;;;;;;14.05;3.17;;;9.10;89.40;;;;;;4992086;28;20026;-80
2023/02/07 10:31:54;;;;;;;16.73;4.32;;;10.40;82.80;;;;;;4999082;28;20030;-78
2023/02/07 10:34:38;;;;;;;18.23;4.05;;;11.70;78.50;;;;;;4954564;28;20035;-78
2023/02/07 10:37:19;;;;;;;6.43;3.08;;;12.50;74.70;;;;;;4990525;28;20030;-78
2023/02/07 10:40:18;;;;;;;6.72;3.13;;;10.40;71.90;;;;;;4989639;28;20037;-80
2023/02/07 10:42:53;;;;;;;14.45;5.40;;;12.00;72.80;;;;;;4984220;28;20041;-77
2023/02/07 10:45:18;;;;;;;9.65;3.05;;;8.50;73.00;;;;;;5016307;22;20050;-78
2023/02/07 10:47:44;;;;;;;8.02;3.33;;;7.20;81.00;;;;;;4991061;28;20033;-76
2023/02/07 10:50:16;;;;;;;8.45;3.33;;;8.20;79.20;;;;;;5010240;28;20040;-79
2023/02/07 10:53:02;;;;;;;11.20;3.60;;;10.00;77.20;;;;;;4982632;28;20038;-80
2023/02/07 10:55:45;;;;;;;6.72;3.20;;;11.00;76.20;;;;;;4961961;28;20532;-80
2023/02/07 10:58:23;;;;;;;5.97;2.53;;;10.10;73.20;;;;;;5010896;28;20097;-80
2023/02/07 11:00:52;;;;;;;8.73;3.63;;;9.60;74.00;;;;;;4991573;28;20038;-79
2023/02/07 11:03:24;;;;;;;8.30;3.50;;;10.40;73.10;;;;;;5010704;28;20033;-80
2023/02/07 11:06:06;;;;;;;8.05;2.88;;;10.20;70.80;;;;;;4994103;28;20382;-80
2023/02/07 11:08:34;;;;;;;5.22;2.95;;;9.40;72.00;;;;;;4994362;28;20026;-79
2023/02/07 11:11:28;;;;;;;5.50;2.85;;;9.30;71.70;;;;;;5010709;28;20484;-80
2023/02/07 11:13:54;;;;;;;8.00;3.55;;;12.20;70.90;;;;;;4993827;28;20181;-80
2023/02/07 11:16:23;;;;;;;7.05;3.00;;;11.60;65.50;;;;;;5010843;28;20041;-80
2023/02/07 11:19:01;;;;;;;5.43;2.60;;;11.80;68.40;;;;;;4993661;28;20432;-79
2023/02/07 11:21:40;;;;;;;5.22;2.70;;;10.30;71.50;;;;;;4993926;28;20038;-80
2023/02/07 11:24:30;;;;;;;10.15;3.67;;;10.30;69.00;;;;;;4993229;28;20117;-80
2023/02/07 11:27:16;;;;;;;8.63;3.40;;;12.70;66.60;;;;;;4993732;28;20030;-80
2023/02/07 11:29:55;;;;;;;6.32;2.45;;;9.10;70.00;;;;;;4993425;28;20073;-80
2023/02/07 11:32:22;;;;;;;6.50;3.33;;;7.70;74.20;;;;;;4991913;28;20030;-81
2023/02/07 11:35:04;;;;;;;8.77;2.97;;;7.80;75.10;;;;;;4977400;28;20109;-80
2023/02/07 11:37:35;;;;;;;5.47;3.75;;;8.20;74.30;;;;;;4978355;28;20026;-80
2023/02/07 11:40:19;;;;;;;10.63;3.08;;;9.50;73.10;;;;;;4977358;28;20094;-80
2023/02/07 11:43:16;;;;;;;8.45;3.55;;;11.20;67.80;;;;;;4994717;28;20405;-80
2023/02/07 11:45:59;;;;;;;6.97;3.10;;;11.90;69.00;;;;;;4977329;28;20552;-80
2023/02/07 11:48:32;;;;;;;8.57;2.30;;;11.30;67.30;;;;;;4978254;28;20556;-80
2023/02/07 11:51:02;;;;;;;6.40;3.78;;;8.40;68.90;;;;;;4977574;28;20034;-80
2023/02/07 11:53:55;;;;;;;6.45;2.80;;;8.60;70.70;;;;;;4977214;28;20036;-79
2023/02/07 11:56:33;;;;;;;5.70;2.28;;;8.70;70.80;;;;;;4977691;28;20057;-80
2023/02/07 11:59:02;;;;;;;14.90;3.05;;;8.60;72.10;;;;;;4977754;28;20031;-80
2023/02/07 12:01:32;;;;;;;8.35;2.70;;;9.10;69.10;;;;;;4989515;28;20030;-80
2023/02/07 12:04:14;;;;;;;5.45;3.08;;;9.90;69.00;;;;;;4996164;28;20033;-80
2023/02/07 12:06:54;;;;;;;7.70;2.97;;;9.20;69.30;;;;;;4997975;28;20057;-82
2023/02/07 12:09:39;;;;;;;5.90;2.97;;;9.50;70.30;;;;;;4996728;28;20029;-82
2023/02/07 12:12:22;;;;;;;11.38;3.13;;;10.10;68.70;;;;;;5013978;28;20133;-81
2023/02/07 12:14:51;;;;;;;7.80;2.67;;;10.60;68.10;;;;;;5013727;28;20069;-82
2023/02/07 12:17:25;;;;;;;10.48;3.30;;;12.20;64.20;;;;;;5014015;28;20375;-80
2023/02/07 12:20:04;;;;;;;6.93;2.97;;;11.00;64.80;;;;;;5013572;28;20026;-81
2023/02/07 12:22:54;;;;;;;4.55;2.50;;;10.40;65.10;;;;;;4996837;28;20030;-80
2023/02/07 12:25:24;;;;;;;8.95;2.40;;;11.40;62.40;;;;;;4996730;28;20026;-79
2023/02/07 12:27:55;;;;;;;5.13;2.47;;;10.70;64.10;;;;;;5013689;28;20504;-80
2023/02/07 12:30:39;;;;;;;7.68;2.63;;;11.50;64.00;;;;;;4996387;28;20037;-80
2023/02/07 12:33:26;;;;;;;9.63;2.88;;;11.20;62.80;;;;;;4996559;28;20034;-80
2023/02/07 12:36:38;;;;;;;6.82;2.20;;;10.60;61.80;;;;;;4997020;28;20042;-79
2023/02/07 12:39:19;;;;;;;5.05;2.50;;;9.40;67.60;;;;;;5004288;28;20046;-80
2023/02/07 12:41:58;;;;;;;6.40;3.03;;;10.70;65.60;;;;;;5013589;28;20061;-80
2023/02/07 12:44:46;;;;;;;3.85;2.00;;;13.70;60.10;;;;;;4995977;28;20069;-80
2023/02/07 12:47:35;;;;;;;6.45;2.90;;;12.40;61.70;;;;;;4981072;28;20042;-80
2023/02/07 12:50:35;;;;;;;5.90;2.42;;;11.30;63.80;;;;;;5012999;28;20059;-79
2023/02/07 12:53:35;;;;;;;4.60;2.40;;;10.70;64.30;;;;;;4997734;28;20036;-80
2023/02/07 12:56:51;;;;;;;6.60;2.80;;;12.80;61.40;;;;;;5013513;28;20043;-80
2023/02/07 12:59:39;;;;;;;4.70;2.50;;;12.00;59.80;;;;;;4991360;28;20754;-80
2023/02/07 13:02:23;;;;;;;7.75;2.28;;;12.80;60.90;;;;;;5013032;28;20532;-82
2023/02/07 13:05:03;;;;;;;6.85;2.58;;;12.00;61.70;;;;;;5013669;28;20065;-79
2023/02/07 13:08:06;;;;;;;5.47;2.27;;;12.50;62.70;;;;;;4999786;28;20022;-80
2023/02/07 13:10:50;;;;;;;7.35;2.45;;;12.80;60.90;;;;;;4994137;28;20057;-79
2023/02/07 13:14:20;;;;;;;6.25;2.83;;;11.40;60.10;;;;;;4977331;28;20070;-80
2023/02/07 13:17:03;;;;;;;4.07;2.33;;;12.60;62.30;;;;;;4933070;29;20036;-80
2023/02/07 13:19:59;;;;;;;6.93;2.85;;;14.10;60.00;;;;;;4988119;28;20129;-80